createdAt,value
2023-07-12T00:01:02.416Z,97512.53
2023-07-12T00:03:32.041Z,97504.53
2023-07-12T00:05:58.874Z,97508.97
2023-07-12T00:08:28.086Z,97513.28
2023-07-12T00:10:57.257Z,97511.75
2023-07-12T00:13:25.219Z,97519.66
2023-07-12T00:15:53.792Z,97516.59
2023-07-12T00:18:27.017Z,97511.56
2023-07-12T00:20:54.550Z,97525.03
2023-07-12T00:23:21.859Z,97523.22
2023-07-12T00:25:50.241Z,97523.50
2023-07-12T00:28:24.807Z,97518.72
2023-07-12T00:30:53.261Z,97512.94
2023-07-12T00:33:20.889Z,97497.13
2023-07-12T00:35:49.160Z,97490.19
2023-07-12T00:38:22.293Z,97487.63
2023-07-12T00:40:54.957Z,97499.50
2023-07-12T00:43:34.027Z,97447.25
2023-07-12T00:46:04.118Z,97379.31
2023-07-12T00:48:30.984Z,97404.00
2023-07-12T00:50:58.188Z,97433.06
2023-07-12T00:53:26.346Z,97410.59
2023-07-12T00:55:56.089Z,97425.84
2023-07-12T00:58:29.674Z,97450.88
2023-07-12T01:01:00.015Z,97461.41
2023-07-12T01:03:31.016Z,97460.06
2023-07-12T01:05:58.156Z,97468.66
2023-07-12T01:08:24.894Z,97482.19
2023-07-12T01:10:52.020Z,97472.53
2023-07-12T01:13:24.891Z,97461.97
2023-07-12T01:15:53.332Z,97474.81
2023-07-12T01:18:20.663Z,97459.19
2023-07-12T01:20:48.237Z,97459.00
2023-07-12T01:23:14.888Z,97469.94
2023-07-12T01:25:46.131Z,97465.13
2023-07-12T01:28:13.735Z,97464.47
2023-07-12T01:30:41.558Z,97438.03
2023-07-12T01:33:08.590Z,97433.22
2023-07-12T01:35:37.098Z,97424.03
2023-07-12T01:38:03.715Z,97399.69
2023-07-12T01:40:30.360Z,97402.47
2023-07-12T01:42:56.957Z,97401.97
2023-07-12T01:45:23.863Z,97386.44
2023-07-12T01:47:50.584Z,97380.28
2023-07-12T01:50:17.370Z,97376.25
2023-07-12T01:52:44.092Z,97368.84
2023-07-12T01:55:10.709Z,97386.22
2023-07-12T01:57:37.353Z,97387.25
2023-07-12T02:00:05.074Z,97388.69
2023-07-12T02:02:31.884Z,97378.59
2023-07-12T02:04:58.579Z,97369.66
2023-07-12T02:07:25.227Z,97347.25
2023-07-12T02:10:14.079Z,97334.63
2023-07-12T02:12:41.468Z,97338.88
2023-07-12T02:15:08.701Z,97322.03
2023-07-12T02:17:35.359Z,97324.53
2023-07-12T02:20:02.127Z,97327.72
2023-07-12T02:22:33.552Z,97318.81
2023-07-12T02:25:00.174Z,97299.47
2023-07-12T02:27:27.314Z,97284.28
2023-07-12T02:29:54.526Z,97288.66
2023-07-12T02:32:24.638Z,97269.56
2023-07-12T02:34:51.337Z,97247.34
2023-07-12T02:37:18.275Z,97252.66
2023-07-12T02:39:46.679Z,97242.53
2023-07-12T02:42:13.755Z,97229.16
2023-07-12T02:44:41.107Z,97219.25
2023-07-12T02:47:09.762Z,97228.88
2023-07-12T02:49:37.393Z,97247.19
2023-07-12T02:52:05.504Z,97257.75
2023-07-12T02:54:33.150Z,97252.28
2023-07-12T02:57:00.879Z,97232.78
2023-07-12T02:59:27.769Z,97225.41
2023-07-12T03:01:54.808Z,97229.75
2023-07-12T03:04:22.755Z,97249.16
2023-07-12T03:06:50.161Z,97227.34
2023-07-12T03:09:17.148Z,97228.06
2023-07-12T03:11:48.279Z,97224.25
2023-07-12T03:14:16.999Z,97233.63
2023-07-12T03:16:44.122Z,97238.44
2023-07-12T03:19:11.166Z,97244.09
2023-07-12T03:21:38.841Z,97225.25
2023-07-12T03:24:06.685Z,97234.34
2023-07-12T03:26:33.988Z,97236.13
2023-07-12T03:29:00.968Z,97230.09
2023-07-12T03:31:30.188Z,97231.91
2023-07-12T03:33:58.132Z,97228.69
2023-07-12T03:36:29.842Z,97232.88
2023-07-12T03:38:57.878Z,97240.03
2023-07-12T03:41:24.539Z,97234.06
2023-07-12T03:43:51.673Z,97215.56
2023-07-12T03:46:19.992Z,97219.25
2023-07-12T03:48:46.650Z,97215.81
2023-07-12T03:51:15.721Z,97191.69
2023-07-12T03:53:42.413Z,97206.59
2023-07-12T03:56:11.066Z,97210.41
2023-07-12T03:58:39.761Z,97201.72
2023-07-12T04:01:12.851Z,97204.22
2023-07-12T04:03:40.484Z,97194.75
2023-07-12T04:06:08.686Z,97181.66
2023-07-12T04:08:35.674Z,97169.28
2023-07-12T04:11:03.520Z,97183.81
2023-07-12T04:13:31.234Z,97186.84
2023-07-12T04:16:01.354Z,97182.75
2023-07-12T04:18:28.821Z,97193.44
2023-07-12T04:20:57.009Z,97186.13
2023-07-12T04:23:23.695Z,97186.00
2023-07-12T04:25:58.673Z,97185.25
2023-07-12T04:28:27.048Z,97185.25
2023-07-12T04:30:53.721Z,97189.41
2023-07-12T04:33:20.386Z,97180.94
2023-07-12T04:35:46.977Z,97185.13
2023-07-12T04:38:13.860Z,97181.91
2023-07-12T04:40:40.415Z,97186.50
2023-07-12T04:43:08.950Z,97198.56
2023-07-12T04:45:36.114Z,97191.16
2023-07-12T04:48:02.847Z,97194.38
2023-07-12T04:50:29.665Z,97184.44
2023-07-12T04:52:56.311Z,97184.53
2023-07-12T04:55:28.540Z,97178.81
2023-07-12T04:57:56.507Z,97179.16
2023-07-12T05:00:28.355Z,97175.66
2023-07-12T05:02:55.354Z,97167.63
2023-07-12T05:05:23.038Z,97164.94
2023-07-12T05:07:49.897Z,97166.84
2023-07-12T05:10:16.919Z,97170.13
2023-07-12T05:12:43.895Z,97160.38
2023-07-12T05:15:13.656Z,97154.16
2023-07-12T05:17:41.196Z,97148.28
2023-07-12T05:20:11.385Z,97148.81
2023-07-12T05:22:38.218Z,97156.34
2023-07-12T05:25:06.450Z,97165.19
2023-07-12T05:27:33.594Z,97170.88
2023-07-12T05:30:01.682Z,97176.81
2023-07-12T05:32:28.601Z,97177.38
2023-07-12T05:34:55.461Z,97177.06
2023-07-12T05:37:22.256Z,97195.31
2023-07-12T05:39:48.955Z,97202.31
2023-07-12T05:42:15.611Z,97207.91
2023-07-12T05:44:42.181Z,97197.34
2023-07-12T05:47:08.975Z,97207.75
2023-07-12T05:49:37.411Z,97204.81
2023-07-12T05:52:04.785Z,97210.63
2023-07-12T05:54:31.978Z,97203.34
2023-07-12T05:56:58.873Z,97210.66
2023-07-12T05:59:25.471Z,97210.78
2023-07-12T06:01:55.493Z,97216.91
2023-07-12T06:04:22.309Z,97219.19
2023-07-12T06:06:49.147Z,97217.31
2023-07-12T06:09:16.380Z,97231.38
2023-07-12T06:11:43.155Z,97220.00
2023-07-12T06:14:09.866Z,97234.88
2023-07-12T06:16:38.953Z,97227.25
2023-07-12T06:19:05.993Z,97231.41
2023-07-12T06:21:32.605Z,97241.75
2023-07-12T06:24:00.862Z,97251.00
2023-07-12T06:26:28.688Z,97252.28
2023-07-12T06:28:55.848Z,97250.56
2023-07-12T06:31:23.916Z,97256.91
2023-07-12T06:33:50.680Z,97266.88
2023-07-12T06:36:17.539Z,97254.22
2023-07-12T06:38:46.382Z,97253.97
2023-07-12T06:41:14.015Z,97253.41
2023-07-12T06:43:40.682Z,97257.44
2023-07-12T06:46:07.611Z,97264.72
2023-07-12T06:48:34.591Z,97251.78
2023-07-12T06:51:01.351Z,97259.75
2023-07-12T06:53:27.975Z,97262.91
2023-07-12T06:55:55.650Z,97269.28
2023-07-12T06:58:22.544Z,97283.81
2023-07-12T07:00:50.495Z,97293.63
2023-07-12T07:03:17.655Z,97300.97
2023-07-12T07:05:46.503Z,97312.47
2023-07-12T07:08:15.035Z,97311.19
2023-07-12T07:10:42.106Z,97322.28
2023-07-12T07:13:09.903Z,97329.56
2023-07-12T07:15:37.215Z,97331.47
2023-07-12T07:18:04.108Z,97329.06
2023-07-12T07:20:32.958Z,97317.25
2023-07-12T07:23:00.415Z,97316.47
2023-07-12T07:25:29.714Z,97318.00
2023-07-12T07:27:56.698Z,97303.56
2023-07-12T07:30:26.399Z,97314.41
2023-07-12T07:32:55.395Z,97314.03
2023-07-12T07:35:22.938Z,97323.00
2023-07-12T07:37:49.918Z,97324.22
2023-07-12T07:40:17.265Z,97326.19
2023-07-12T07:42:44.135Z,97333.47
2023-07-12T07:45:11.886Z,97320.00
2023-07-12T07:47:39.369Z,97327.31
2023-07-12T07:50:08.052Z,97332.94
2023-07-12T07:52:34.839Z,97330.69
2023-07-12T07:55:02.029Z,97313.13
2023-07-12T07:57:30.177Z,97305.53
2023-07-12T07:59:57.372Z,97304.81
2023-07-12T08:02:24.662Z,97315.41
2023-07-12T08:04:51.524Z,97318.34
2023-07-12T08:07:18.238Z,97310.94
2023-07-12T08:09:45.256Z,97315.47
2023-07-12T08:12:12.147Z,97309.22
2023-07-12T08:14:38.940Z,97302.56
2023-07-12T08:17:06.041Z,97304.63
2023-07-12T08:19:32.804Z,97306.66
2023-07-12T08:21:59.474Z,97294.22
2023-07-12T08:24:26.454Z,97317.09
2023-07-12T08:27:02.474Z,97306.66
2023-07-12T08:29:34.176Z,97300.06
2023-07-12T08:32:01.105Z,97303.34
2023-07-12T08:34:28.040Z,97306.66
2023-07-12T08:36:54.730Z,97302.25
2023-07-12T08:39:21.378Z,97307.88
2023-07-12T08:41:49.978Z,97292.00
2023-07-12T08:44:16.680Z,97291.00
2023-07-12T08:46:54.748Z,97289.06
2023-07-12T08:49:23.233Z,97285.94
2023-07-12T08:51:50.862Z,97288.59
2023-07-12T08:54:23.776Z,97280.50
2023-07-12T08:57:05.768Z,97286.91
2023-07-12T08:59:33.245Z,97283.13
2023-07-12T09:02:01.785Z,97286.81
2023-07-12T09:04:33.091Z,97285.53
2023-07-12T09:07:05.746Z,97275.34
2023-07-12T09:09:40.266Z,97277.16
2023-07-12T09:12:22.521Z,97281.06
2023-07-12T09:14:53.369Z,97275.34
2023-07-12T09:17:25.212Z,97273.81
2023-07-12T09:19:51.874Z,97272.38
2023-07-12T09:22:19.815Z,97273.94
2023-07-12T09:24:55.691Z,97262.00
2023-07-12T09:27:29.370Z,97261.78
2023-07-12T09:30:05.751Z,97267.13
2023-07-12T09:32:37.665Z,97264.13
2023-07-12T09:35:33.543Z,97263.09
2023-07-12T09:38:08.106Z,97270.06
2023-07-12T09:40:43.859Z,97254.16
2023-07-12T09:43:19.747Z,97252.19
2023-07-12T09:46:10.560Z,97252.41
2023-07-12T09:48:45.050Z,97235.22
2023-07-12T09:51:37.086Z,97229.34
2023-07-12T09:54:34.043Z,97227.56
2023-07-12T09:57:09.027Z,97238.09
2023-07-12T10:00:12.674Z,97235.06
2023-07-12T10:02:59.496Z,97252.47
2023-07-12T10:05:26.321Z,97249.94
2023-07-12T10:08:05.237Z,97254.81
2023-07-12T10:10:47.515Z,97254.03
2023-07-12T10:13:35.398Z,97244.34
2023-07-12T10:16:07.897Z,97241.88
2023-07-12T10:18:39.283Z,97238.72
2023-07-12T10:21:08.575Z,97236.78
2023-07-12T10:23:45.191Z,97236.16
2023-07-12T10:26:15.617Z,97241.19
2023-07-12T10:29:07.180Z,97238.84
2023-07-12T10:31:56.901Z,97244.91
2023-07-12T10:34:41.351Z,97235.81
2023-07-12T10:37:26.983Z,97253.41
2023-07-12T10:39:54.367Z,97237.28
2023-07-12T10:42:31.719Z,97246.84
2023-07-12T10:45:00.905Z,97238.13
2023-07-12T10:47:41.935Z,97242.22
2023-07-12T10:50:23.513Z,97244.59
2023-07-12T10:53:17.891Z,97244.63
2023-07-12T10:56:12.845Z,97245.78
2023-07-12T10:58:50.456Z,97245.34
2023-07-12T11:01:57.680Z,97239.47
2023-07-12T11:04:32.513Z,97243.47
2023-07-12T11:07:08.523Z,97228.34
2023-07-12T11:09:46.603Z,97244.94
2023-07-12T11:12:32.524Z,97238.84
2023-07-12T11:15:08.456Z,97229.06
2023-07-12T11:18:21.966Z,97239.56
2023-07-12T11:21:09.599Z,97228.03
2023-07-12T11:23:42.612Z,97235.56
2023-07-12T11:26:31.258Z,97233.78
2023-07-12T11:29:23.264Z,97238.38
2023-07-12T11:32:18.697Z,97230.47
2023-07-12T11:34:47.208Z,97231.41
2023-07-12T11:37:24.976Z,97232.00
2023-07-12T11:39:52.711Z,97225.41
2023-07-12T11:42:28.389Z,97234.28
2023-07-12T11:45:06.393Z,97227.97
2023-07-12T11:47:34.070Z,97225.31
2023-07-12T11:50:02.464Z,97224.13
2023-07-12T11:52:29.577Z,97233.72
2023-07-12T11:54:56.293Z,97228.44
2023-07-12T11:57:23.449Z,97226.69
2023-07-12T11:59:51.727Z,97212.38
2023-07-12T12:02:23.268Z,97212.47
2023-07-12T12:04:57.966Z,97202.78
2023-07-12T12:07:33.380Z,97204.59
2023-07-12T12:10:02.720Z,97210.94
2023-07-12T12:12:33.144Z,97224.25
2023-07-12T12:15:03.741Z,97220.38
2023-07-12T12:17:38.069Z,97211.63
2023-07-12T12:20:15.389Z,97210.50
2023-07-12T12:22:45.099Z,97215.06
2023-07-12T12:25:20.632Z,97205.31
2023-07-12T12:27:50.053Z,97189.72
2023-07-12T12:30:18.936Z,97192.31
2023-07-12T12:33:06.031Z,97198.91
2023-07-12T12:35:45.758Z,97197.50
2023-07-12T12:38:21.716Z,97206.59
2023-07-12T12:40:57.634Z,97201.97
2023-07-12T12:43:26.970Z,97194.78
2023-07-12T12:46:06.486Z,97194.81
2023-07-12T12:52:34.202Z,97205.50
2023-07-12T12:53:55.716Z,97199.25
2023-07-12T13:06:28.873Z,97197.94
2023-07-12T13:21:27.162Z,97165.88
2023-07-12T13:23:54.651Z,97168.28
2023-07-12T13:26:23.491Z,97182.13
2023-07-12T13:28:50.820Z,97188.06
2023-07-12T13:31:20.928Z,97196.19
2023-07-12T13:36:30.908Z,97202.78
2023-07-12T13:46:47.804Z,97192.19
2023-07-12T13:49:16.161Z,97188.31
2023-07-12T13:51:43.443Z,97211.22
2023-07-12T13:54:11.043Z,97232.34
2023-07-12T14:09:19.075Z,97253.75
2023-07-12T14:11:46.450Z,97255.56
2023-07-12T14:14:14.390Z,97266.72
2023-07-12T14:16:41.345Z,97291.16
2023-07-12T14:19:08.064Z,97292.72
2023-07-12T14:21:34.672Z,97296.41
2023-07-12T14:24:01.929Z,97320.22
2023-07-12T14:26:28.529Z,97320.13
2023-07-12T14:29:00.470Z,97331.22
2023-07-12T14:31:31.411Z,97336.25
2023-07-12T14:33:58.098Z,97321.75
2023-07-12T14:36:27.233Z,97308.66
2023-07-12T14:38:54.057Z,97309.84
2023-07-12T14:41:28.628Z,97307.81
2023-07-12T14:44:01.132Z,97308.97
2023-07-12T14:46:27.828Z,97326.66
2023-07-12T14:48:54.707Z,97335.09
2023-07-12T14:51:24.814Z,97328.66
2023-07-12T14:53:52.903Z,97328.16
2023-07-12T14:56:22.395Z,97340.06
2023-07-12T14:58:49.254Z,97336.53
2023-07-12T15:01:29.482Z,97336.53
2023-07-12T15:04:00.009Z,97328.16
2023-07-12T15:06:27.496Z,97316.50
2023-07-12T15:08:58.230Z,97314.44
2023-07-12T15:11:27.497Z,97312.19
2023-07-12T15:13:54.875Z,97313.91
2023-07-12T15:16:23.857Z,97314.00
2023-07-12T15:18:51.040Z,97301.34
2023-07-12T15:21:22.960Z,97301.94
2023-07-12T15:23:50.187Z,97311.28
2023-07-12T15:26:18.017Z,97332.16
2023-07-12T15:28:46.996Z,97327.19
2023-07-12T15:31:24.712Z,97325.78
2023-07-12T15:33:52.441Z,97309.75
2023-07-12T15:36:20.038Z,97318.81
2023-07-12T15:38:50.911Z,97320.66
2023-07-12T15:41:24.527Z,97323.03
2023-07-12T15:43:56.155Z,97331.69
2023-07-12T15:46:28.756Z,97339.25
2023-07-12T15:48:56.871Z,97338.34
2023-07-12T15:51:26.768Z,97344.06
2023-07-12T15:53:56.183Z,97333.53
2023-07-12T15:56:29.029Z,97326.63
2023-07-12T15:58:56.152Z,97312.69
2023-07-12T16:01:29.562Z,97302.28
2023-07-12T16:03:57.284Z,97292.13
2023-07-12T16:06:24.736Z,97293.13
2023-07-12T16:08:52.572Z,97294.44
2023-07-12T16:11:27.471Z,97299.19
2023-07-12T16:14:00.822Z,97292.88
2023-07-12T16:16:32.765Z,97288.78
2023-07-12T16:18:59.705Z,97286.03
2023-07-12T16:21:30.318Z,97293.88
2023-07-12T16:23:59.590Z,97295.38
2023-07-12T16:26:30.453Z,97281.47
2023-07-12T16:28:58.742Z,97272.34
2023-07-12T16:31:25.864Z,97239.84
2023-07-12T16:33:55.153Z,97244.41
2023-07-12T16:36:23.416Z,97248.66
2023-07-12T16:38:50.579Z,97253.28
2023-07-12T16:41:31.663Z,97249.97
2023-07-12T16:43:59.480Z,97246.16
2023-07-12T16:46:27.781Z,97240.09
2023-07-12T16:48:54.897Z,97253.75
2023-07-12T16:51:28.886Z,97264.94
2023-07-12T16:53:55.940Z,97274.78
2023-07-12T16:56:26.409Z,97276.03
2023-07-12T16:58:54.659Z,97266.63
2023-07-12T17:01:30.380Z,97279.28
2023-07-12T17:03:58.828Z,97262.31
2023-07-12T17:06:26.206Z,97245.34
2023-07-12T17:08:53.059Z,97257.06
2023-07-12T17:11:22.696Z,97269.88
2023-07-12T17:13:49.434Z,97280.78
2023-07-12T17:16:17.587Z,97293.59
2023-07-12T17:18:45.122Z,97291.81
2023-07-12T17:21:21.045Z,97289.75
2023-07-12T17:23:48.026Z,97272.03
2023-07-12T17:26:17.157Z,97272.03
2023-07-12T17:28:45.668Z,97273.59
2023-07-12T17:31:19.001Z,97266.75
2023-07-12T17:33:46.250Z,97272.84
2023-07-12T17:36:16.456Z,97294.81
2023-07-12T17:38:43.494Z,97297.47
2023-07-12T17:41:18.867Z,97308.28
2023-07-12T17:43:45.743Z,97303.34
2023-07-12T17:46:13.260Z,97313.81
2023-07-12T17:48:43.900Z,97312.81
2023-07-12T17:51:37.389Z,97309.66
2023-07-12T17:54:04.593Z,97306.78
2023-07-12T17:56:31.658Z,97303.16
2023-07-12T17:58:59.077Z,97306.50
2023-07-12T18:01:27.842Z,97299.19
2023-07-12T18:03:55.313Z,97300.44
2023-07-12T18:06:25.816Z,97281.69
2023-07-12T18:08:53.841Z,97294.91
2023-07-12T18:11:28.373Z,97300.00
2023-07-12T18:13:56.401Z,97315.94
2023-07-12T18:16:24.192Z,97332.66
2023-07-12T18:18:52.338Z,97350.16
2023-07-12T18:21:25.693Z,97327.31
2023-07-12T18:23:52.497Z,97321.97
2023-07-12T18:26:20.668Z,97313.91
2023-07-12T18:28:48.670Z,97318.16
2023-07-12T18:31:22.831Z,97317.97
2023-07-12T18:33:49.573Z,97306.13
2023-07-12T18:36:21.188Z,97286.56
2023-07-12T18:38:49.744Z,97282.75
2023-07-12T18:41:25.367Z,97288.34
2023-07-12T18:43:56.740Z,97288.59
2023-07-12T18:46:24.337Z,97320.09
2023-07-12T18:48:51.665Z,97318.25
2023-07-12T18:51:23.518Z,97331.72
2023-07-12T18:53:50.761Z,97344.84
2023-07-12T18:56:20.342Z,97333.09
2023-07-12T18:58:47.733Z,97333.41
2023-07-12T19:01:17.384Z,97319.16
2023-07-12T19:03:44.722Z,97320.81
2023-07-12T19:06:22.950Z,97321.28
2023-07-12T19:08:50.548Z,97324.41
2023-07-12T19:11:33.865Z,97322.91
2023-07-12T19:14:00.596Z,97320.06
2023-07-12T19:16:28.350Z,97331.44
2023-07-12T19:18:55.188Z,97337.97
2023-07-12T19:21:27.377Z,97347.63
2023-07-12T19:23:55.996Z,97343.22
2023-07-12T19:26:24.573Z,97342.84
2023-07-12T19:28:53.800Z,97359.44
2023-07-12T19:31:25.739Z,97368.19
2023-07-12T19:33:54.921Z,97374.78
2023-07-12T19:36:26.838Z,97382.16
2023-07-12T19:38:55.779Z,97390.72
2023-07-12T19:41:26.480Z,97414.72
2023-07-12T19:43:53.738Z,97429.16
2023-07-12T19:46:20.778Z,97448.81
2023-07-12T19:48:47.717Z,97454.06
2023-07-12T19:51:28.241Z,97462.69
2023-07-12T19:53:59.996Z,97477.53
2023-07-12T19:56:27.172Z,97496.66
2023-07-12T19:58:57.490Z,97494.72
2023-07-12T20:01:26.561Z,97467.41
2023-07-12T20:03:55.482Z,97433.34
2023-07-12T20:06:23.647Z,97416.25
2023-07-12T20:08:54.235Z,97421.63
2023-07-12T20:11:22.471Z,97437.41
2023-07-12T20:13:50.194Z,97434.75
2023-07-12T20:16:19.673Z,97437.66
2023-07-12T20:18:46.565Z,97431.38
2023-07-12T20:21:13.680Z,97447.53
2023-07-12T20:23:40.905Z,97436.66
2023-07-12T20:26:11.487Z,97446.56
2023-07-12T20:28:42.010Z,97450.06
2023-07-12T20:31:11.765Z,97451.50
2023-07-12T20:33:40.505Z,97442.34
2023-07-12T20:36:09.173Z,97446.09
2023-07-12T20:38:36.116Z,97458.06
2023-07-12T20:41:02.954Z,97447.13
2023-07-12T20:43:32.992Z,97453.13
2023-07-12T20:46:02.516Z,97457.59
2023-07-12T20:48:34.034Z,97476.84
2023-07-12T20:51:03.502Z,97477.75
2023-07-12T20:53:31.377Z,97460.22
2023-07-12T20:56:01.609Z,97450.69
2023-07-12T20:58:30.838Z,97469.34
2023-07-12T21:01:11.830Z,97473.22
2023-07-12T21:03:38.651Z,97472.94
2023-07-12T21:06:07.154Z,97478.38
2023-07-12T21:08:35.418Z,97474.91
2023-07-12T21:11:05.146Z,97476.50
2023-07-12T21:13:32.984Z,97485.22
2023-07-12T21:16:02.519Z,97489.03
2023-07-12T21:18:29.746Z,97495.69
2023-07-12T21:20:57.083Z,97481.47
2023-07-12T21:23:26.136Z,97490.69
2023-07-12T21:25:53.033Z,97479.00
2023-07-12T21:28:19.715Z,97464.22
2023-07-12T21:30:50.700Z,97466.09
2023-07-12T21:33:18.368Z,97463.91
2023-07-12T21:35:57.653Z,97454.09
2023-07-12T21:38:28.025Z,97452.34
2023-07-12T21:41:08.342Z,97420.28
2023-07-12T21:43:35.715Z,97419.88
2023-07-12T21:46:03.120Z,97425.16
2023-07-12T21:48:30.216Z,97420.97
2023-07-12T21:50:59.447Z,97414.25
2023-07-12T21:53:26.250Z,97419.16
2023-07-12T21:55:53.085Z,97422.50
2023-07-12T21:58:22.305Z,97427.53
2023-07-12T22:00:49.258Z,97418.66
2023-07-12T22:03:16.674Z,97425.56
2023-07-12T22:05:44.734Z,97422.69
2023-07-12T22:08:13.473Z,97434.69
2023-07-12T22:10:40.451Z,97425.75
2023-07-12T22:13:07.048Z,97423.13
2023-07-12T22:15:34.065Z,97434.84
2023-07-12T22:18:00.700Z,97438.72
2023-07-12T22:20:27.598Z,97443.19
2023-07-12T22:22:55.646Z,97447.13
2023-07-12T22:25:22.936Z,97458.34
2023-07-12T22:27:51.068Z,97458.16
2023-07-12T22:30:29.727Z,97461.28
2023-07-12T22:32:57.358Z,97470.50
2023-07-12T22:35:24.812Z,97477.88
2023-07-12T22:37:53.618Z,97477.00
2023-07-12T22:40:20.958Z,97483.81
2023-07-12T22:42:49.075Z,97482.00
2023-07-12T22:45:16.216Z,97478.41
2023-07-12T22:47:43.118Z,97477.09
2023-07-12T22:50:11.280Z,97474.88
2023-07-12T22:52:38.304Z,97470.28
2023-07-12T22:55:05.388Z,97474.97
2023-07-12T22:57:32.429Z,97480.53
2023-07-12T23:00:01.220Z,97487.63
2023-07-12T23:02:27.925Z,97511.94
2023-07-12T23:04:54.596Z,97513.09
2023-07-12T23:07:22.068Z,97521.50
2023-07-12T23:09:51.403Z,97518.84
2023-07-12T23:12:18.167Z,97511.88
2023-07-12T23:14:44.850Z,97516.91
2023-07-12T23:17:12.513Z,97523.72
2023-07-12T23:19:40.523Z,97518.44
2023-07-12T23:22:07.570Z,97514.63
2023-07-12T23:24:34.240Z,97516.31
2023-07-12T23:27:05.236Z,97519.41
2023-07-12T23:29:35.211Z,97525.34
2023-07-12T23:32:04.594Z,97520.75
2023-07-12T23:34:34.456Z,97513.31
2023-07-12T23:37:02.564Z,97510.41
2023-07-12T23:39:30.461Z,97515.38
2023-07-12T23:42:03.582Z,97507.56
2023-07-12T23:44:32.097Z,97506.31
2023-07-12T23:46:59.683Z,97500.06
2023-07-12T23:49:28.005Z,97493.19
2023-07-12T23:51:57.698Z,97487.13
2023-07-12T23:54:25.437Z,97482.00
2023-07-12T23:56:56.284Z,97484.44
2023-07-12T23:59:23.590Z,97494.53
